Lewistown, MT (59457)

2:45 PM MDT on July 25, 2016 (GMT -0600)
| | Change Station

Elev -9999 ft 0.00 °N, 0.00 °E | Updated

Clear
Clear
83 °F
Feels Like 83 °F
N
9
Wind Variable Wind from North
Gusts mph

Today
High -- | Low -- °F
--% Chance of Precip.
Yesterday
High -- | Low -- °F
Precip. -- in
Pressure 30.00 in
Visibility 10.0 miles
Clouds Clear
Dew Point 49 °F
Humidity 31%
Rainfall --
Snow Depth Not available.
5:49 AM 8:58 PM
Waning Gibbous, 62% visible
METAR KLWT 251954Z AUTO 01007KT 10SM CLR 28/11 A3011 RMK AO2 SLP157 T02830106
Pressure 30.00 in
Visibility 10.0 miles
Clouds Clear
Dew Point 49 °F
Humidity 31%
Rainfall --
Snow Depth Not available.
5:49 AM 8:58 PM
Waning Gibbous, 62% visible
METAR KLWT 251954Z AUTO 01007KT 10SM CLR 28/11 A3011 RMK AO2 SLP157 T02830106

10-Day Weather Forecast

Almanac

Astronomy

Jul. 25, 2016 Rise Set
Actual Time
Civil Twilight
Nautical Twilight
Astronomical Twilight
Moon
Length of Visible Light
Length of Day
Tomorrow will be .
, % of the Moon is Illuminated

Today's Extremes

State Highs State Lows

Community

WunderPhotos

Upload Photos

1,927,417 photos uploaded!

WunderBlog® & News

Nearby

Air Quality

  Air Quality AQ Index Pollutant
Not available.

Snow Depth

Station Depth Elevation

Earthquake Activity

City Distance Mag. Time & Date
Minimum magnitude displayed is 2.5.

Coastal Water Temperatures

Place Temperature

Stations

Nearby Weather Stations

Station Location Temp. Windchill Dew Point Humidity Wind Precip. Elev Updated Type
                   

Watches & Warnings

There are currently no watches in effect.